ロンドン/ヒースロー の空港の天気 - METARとTAF

ロンドン・ヒースロー空港 ( EGLL / LHR ) - イギリス ロンドン
飛行場実況気象(Metar)
観測時間08/13 22:20 BST (08/13 21:20 UTC)
風向・風速東 3m/s
視程10km以上
天気現象
なし
気温24℃
湿度38%
気圧1012hPa
METAREGLL 132120Z AUTO 09006KT 9999 NCD 24/09 Q1012
過去の天気等 Google飛行場航空写真 Wunderground天気予報

過去48時間のMETAR

飛行場予報(TAF)
発表時間: 8/13 17:59 BST (8/13 16:59 UTC)
予報対象時間: 13日19時 BST ~ 15日1時 BST
風向・風速南東 5m/s
視程10km以上
なし
13日20時 BST ~ 13日23時 BST に徐々に
風向・風速東北東 3m/s
14日17時 BST ~ 14日20時 BST に徐々に
風向・風速南 5m/s
TAF EGLL 131659Z 1318/1424 14010KT CAVOK
BECMG 1319/1322 07005KT
BECMG 1416/1419 19010KT